sensor_id;sensor_type;location;lat;lon;timestamp;noise_LAeq;noise_LA_min;noise_LA_max;noise_LA01;noise_LA95
43787;Laerm;29409;49.306;8.500;2023-11-22T00:00:38;41.03;38.52;49.52;;
43787;Laerm;29409;49.306;8.500;2023-11-22T00:01:38;43.49;39.46;65.51;;
43787;Laerm;29409;49.306;8.500;2023-11-22T00:02:39;44.45;39.70;61.81;;
43787;Laerm;29409;49.306;8.500;2023-11-22T00:03:39;43.64;39.92;61.69;;
43787;Laerm;29409;49.306;8.500;2023-11-22T00:04:40;44.02;40.23;65.92;;
43787;Laerm;29409;49.306;8.500;2023-11-22T00:05:40;44.98;39.58;56.09;;
43787;Laerm;29409;49.306;8.500;2023-11-22T00:06:43;43.67;40.43;64.69;;
43787;Laerm;29409;49.306;8.500;2023-11-22T00:07:43;46.25;41.38;65.74;;
43787;Laerm;29409;49.306;8.500;2023-11-22T00:08:43;43.51;40.13;59.28;;
43787;Laerm;29409;49.306;8.500;2023-11-22T00:09:44;45.84;40.62;62.25;;
43787;Laerm;29409;49.306;8.500;2023-11-22T00:10:46;43.96;39.08;68.16;;
43787;Laerm;29409;49.306;8.500;2023-11-22T00:11:46;44.63;39.21;72.74;;
43787;Laerm;29409;49.306;8.500;2023-11-22T00:12:47;43.20;39.58;57.75;;
43787;Laerm;29409;49.306;8.500;2023-11-22T00:13:47;43.77;39.92;62.14;;
43787;Laerm;29409;49.306;8.500;2023-11-22T00:14:49;42.20;39.21;55.21;;
43787;Laerm;29409;49.306;8.500;2023-11-22T00:15:49;42.91;40.62;56.47;;
43787;Laerm;29409;49.306;8.500;2023-11-22T00:16:51;44.01;40.53;58.14;;
43787;Laerm;29409;49.306;8.500;2023-11-22T00:17:51;43.09;40.43;57.37;;
43787;Laerm;29409;49.306;8.500;2023-11-22T00:18:52;44.16;39.92;57.66;;
43787;Laerm;29409;49.306;8.500;2023-11-22T00:19:53;43.39;41.30;57.81;;
43787;Laerm;29409;49.306;8.500;2023-11-22T00:20:53;45.09;40.89;59.88;;
43787;Laerm;29409;49.306;8.500;2023-11-22T00:21:55;44.25;40.23;56.87;;
43787;Laerm;29409;49.306;8.500;2023-11-22T00:22:56;41.79;39.46;51.66;;
43787;Laerm;29409;49.306;8.500;2023-11-22T00:23:56;41.28;38.21;53.13;;
43787;Laerm;29409;49.306;8.500;2023-11-22T00:24:56;41.30;38.37;49.41;;
43787;Laerm;29409;49.306;8.500;2023-11-22T00:25:56;41.13;37.70;52.11;;
43787;Laerm;29409;49.306;8.500;2023-11-22T00:26:57;41.61;38.37;52.97;;
43787;Laerm;29409;49.306;8.500;2023-11-22T00:27:57;41.54;37.87;47.36;;
43787;Laerm;29409;49.306;8.500;2023-11-22T00:28:58;42.86;39.58;56.23;;
43787;Laerm;29409;49.306;8.500;2023-11-22T00:29:59;43.10;39.46;57.62;;
43787;Laerm;29409;49.306;8.500;2023-11-22T00:31:00;41.98;38.95;51.80;;
43787;Laerm;29409;49.306;8.500;2023-11-22T00:32:00;42.11;39.21;52.78;;
43787;Laerm;29409;49.306;8.500;2023-11-22T00:33:02;45.15;39.92;65.79;;
43787;Laerm;29409;49.306;8.500;2023-11-22T00:34:02;45.76;40.71;64.04;;
43787;Laerm;29409;49.306;8.500;2023-11-22T00:35:02;47.33;42.09;69.08;;
43787;Laerm;29409;49.306;8.500;2023-11-22T00:36:03;51.77;44.35;71.80;;
43787;Laerm;29409;49.306;8.500;2023-11-22T00:37:04;47.99;43.63;67.60;;
43787;Laerm;29409;49.306;8.500;2023-11-22T00:38:04;48.46;42.76;66.90;;
43787;Laerm;29409;49.306;8.500;2023-11-22T00:39:05;49.78;42.41;77.05;;
43787;Laerm;29409;49.306;8.500;2023-11-22T00:40:05;51.28;40.88;78.31;;
43787;Laerm;29409;49.306;8.500;2023-11-22T00:41:10;43.40;40.03;63.25;;
43787;Laerm;29409;49.306;8.500;2023-11-22T00:42:11;42.84;39.58;64.51;;
43787;Laerm;29409;49.306;8.500;2023-11-22T00:43:12;43.02;38.81;60.88;;
43787;Laerm;29409;49.306;8.500;2023-11-22T00:44:12;41.71;37.52;51.48;;
43787;Laerm;29409;49.306;8.500;2023-11-22T00:45:12;40.87;38.05;49.74;;
43787;Laerm;29409;49.306;8.500;2023-11-22T00:46:13;40.68;37.32;49.58;;
43787;Laerm;29409;49.306;8.500;2023-11-22T00:47:16;40.61;37.52;45.11;;
43787;Laerm;29409;49.306;8.500;2023-11-22T00:48:16;40.96;38.32;51.67;;
43787;Laerm;29409;49.306;8.500;2023-11-22T00:49:17;41.77;38.52;55.52;;
43787;Laerm;29409;49.306;8.500;2023-11-22T00:50:17;41.71;38.37;49.15;;
43787;Laerm;29409;49.306;8.500;2023-11-22T00:51:20;41.81;38.67;54.56;;
43787;Laerm;29409;49.306;8.500;2023-11-22T00:52:21;41.93;36.91;55.12;;
43787;Laerm;29409;49.306;8.500;2023-11-22T00:53:21;40.73;38.02;46.13;;
43787;Laerm;29409;49.306;8.500;2023-11-22T00:54:21;42.61;37.88;54.89;;
43787;Laerm;29409;49.306;8.500;2023-11-22T00:55:21;42.30;38.67;53.86;;
43787;Laerm;29409;49.306;8.500;2023-11-22T00:56:22;41.57;38.32;50.92;;
43787;Laerm;29409;49.306;8.500;2023-11-22T00:57:22;43.99;38.37;67.54;;
43787;Laerm;29409;49.306;8.500;2023-11-22T00:58:23;41.53;38.52;49.71;;
43787;Laerm;29409;49.306;8.500;2023-11-22T00:59:23;43.43;37.88;55.81;;
43787;Laerm;29409;49.306;8.500;2023-11-22T01:00:23;42.67;37.70;55.02;;
43787;Laerm;29409;49.306;8.500;2023-11-22T01:01:26;40.86;37.52;49.11;;
43787;Laerm;29409;49.306;8.500;2023-11-22T01:02:27;40.98;36.69;48.25;;
43787;Laerm;29409;49.306;8.500;2023-11-22T01:03:27;41.34;37.87;55.78;;
43787;Laerm;29409;49.306;8.500;2023-11-22T01:04:28;40.74;37.70;48.55;;
43787;Laerm;29409;49.306;8.500;2023-11-22T01:05:28;40.93;37.52;45.51;;
43787;Laerm;29409;49.306;8.500;2023-11-22T01:06:29;41.03;37.70;47.54;;
43787;Laerm;29409;49.306;8.500;2023-11-22T01:07:32;42.54;38.05;55.12;;
43787;Laerm;29409;49.306;8.500;2023-11-22T01:08:32;40.91;37.35;43.68;;
43787;Laerm;29409;49.306;8.500;2023-11-22T01:09:32;44.47;38.05;63.77;;
43787;Laerm;29409;49.306;8.500;2023-11-22T01:10:33;41.52;38.37;49.62;;
43787;Laerm;29409;49.306;8.500;2023-11-22T01:11:34;43.17;37.88;71.87;;
43787;Laerm;29409;49.306;8.500;2023-11-22T01:12:35;45.04;38.81;57.19;;
43787;Laerm;29409;49.306;8.500;2023-11-22T01:13:35;41.15;37.52;50.70;;
43787;Laerm;29409;49.306;8.500;2023-11-22T01:14:41;40.67;37.12;44.23;;
43787;Laerm;29409;49.306;8.500;2023-11-22T01:15:42;40.80;37.70;43.99;;
43787;Laerm;29409;49.306;8.500;2023-11-22T01:16:44;40.66;38.05;43.72;;
43787;Laerm;29409;49.306;8.500;2023-11-22T01:17:44;40.56;37.52;42.88;;
43787;Laerm;29409;49.306;8.500;2023-11-22T01:18:45;41.36;38.21;44.35;;
43787;Laerm;29409;49.306;8.500;2023-11-22T01:19:46;41.36;38.37;43.86;;
43787;Laerm;29409;49.306;8.500;2023-11-22T01:20:46;42.02;38.95;47.28;;
43787;Laerm;29409;49.306;8.500;2023-11-22T01:21:47;41.28;38.52;44.27;;
43787;Laerm;29409;49.306;8.500;2023-11-22T01:22:47;41.58;38.67;48.23;;
43787;Laerm;29409;49.306;8.500;2023-11-22T01:23:47;41.19;38.37;44.01;;
43787;Laerm;29409;49.306;8.500;2023-11-22T01:24:48;41.48;38.81;43.19;;
43787;Laerm;29409;49.306;8.500;2023-11-22T01:25:48;41.57;39.21;43.44;;
43787;Laerm;29409;49.306;8.500;2023-11-22T01:26:48;41.48;38.67;43.72;;
43787;Laerm;29409;49.306;8.500;2023-11-22T01:27:48;41.52;38.05;44.39;;
43787;Laerm;29409;49.306;8.500;2023-11-22T01:28:49;40.99;38.05;43.81;;
43787;Laerm;29409;49.306;8.500;2023-11-22T01:29:49;40.74;38.02;43.49;;
43787;Laerm;29409;49.306;8.500;2023-11-22T01:30:49;40.61;37.52;43.24;;
43787;Laerm;29409;49.306;8.500;2023-11-22T01:31:49;40.99;37.70;43.09;;
43787;Laerm;29409;49.306;8.500;2023-11-22T01:32:50;41.89;38.81;45.97;;
43787;Laerm;29409;49.306;8.500;2023-11-22T01:33:51;41.23;38.05;43.34;;
43787;Laerm;29409;49.306;8.500;2023-11-22T01:34:53;41.10;38.21;43.39;;
43787;Laerm;29409;49.306;8.500;2023-11-22T01:35:53;41.40;38.52;44.80;;
43787;Laerm;29409;49.306;8.500;2023-11-22T01:36:53;42.00;38.81;47.18;;
43787;Laerm;29409;49.306;8.500;2023-11-22T01:37:53;41.40;39.08;45.20;;
43787;Laerm;29409;49.306;8.500;2023-11-22T01:38:54;41.86;39.21;44.27;;
43787;Laerm;29409;49.306;8.500;2023-11-22T01:39:56;41.33;39.08;43.58;;
43787;Laerm;29409;49.306;8.500;2023-11-22T01:40:57;41.40;38.67;43.77;;
43787;Laerm;29409;49.306;8.500;2023-11-22T01:41:57;42.07;38.37;47.12;;
43787;Laerm;29409;49.306;8.500;2023-11-22T01:42:58;40.96;37.88;46.45;;
43787;Laerm;29409;49.306;8.500;2023-11-22T01:43:58;41.02;38.21;43.19;;
43787;Laerm;29409;49.306;8.500;2023-11-22T01:44:58;41.26;37.70;43.72;;
43787;Laerm;29409;49.306;8.500;2023-11-22T01:45:58;40.83;38.52;43.04;;
43787;Laerm;29409;49.306;8.500;2023-11-22T01:47:02;41.00;38.52;43.14;;
43787;Laerm;29409;49.306;8.500;2023-11-22T01:48:03;41.49;38.21;47.65;;
43787;Laerm;29409;49.306;8.500;2023-11-22T01:49:03;40.84;38.21;43.49;;
43787;Laerm;29409;49.306;8.500;2023-11-22T01:50:08;40.45;37.52;43.68;;
43787;Laerm;29409;49.306;8.500;2023-11-22T01:51:08;41.04;38.52;45.01;;
43787;Laerm;29409;49.306;8.500;2023-11-22T01:52:09;42.03;38.95;47.93;;
43787;Laerm;29409;49.306;8.500;2023-11-22T01:53:11;41.51;38.52;44.54;;
43787;Laerm;29409;49.306;8.500;2023-11-22T01:54:12;41.21;38.37;43.94;;
43787;Laerm;29409;49.306;8.500;2023-11-22T01:55:13;40.65;37.70;44.23;;
43787;Laerm;29409;49.306;8.500;2023-11-22T01:56:13;41.62;37.70;57.09;;
43787;Laerm;29409;49.306;8.500;2023-11-22T01:57:14;40.93;37.70;52.17;;
43787;Laerm;29409;49.306;8.500;2023-11-22T01:58:14;41.31;38.67;50.05;;
43787;Laerm;29409;49.306;8.500;2023-11-22T01:59:16;41.87;39.08;44.31;;
43787;Laerm;29409;49.306;8.500;2023-11-22T02:00:18;43.50;39.34;51.95;;
43787;Laerm;29409;49.306;8.500;2023-11-22T02:01:19;42.16;39.46;47.18;;
43787;Laerm;29409;49.306;8.500;2023-11-22T02:02:20;41.62;39.21;45.23;;
43787;Laerm;29409;49.306;8.500;2023-11-22T02:03:20;41.29;38.37;50.28;;
43787;Laerm;29409;49.306;8.500;2023-11-22T02:04:21;40.67;37.70;43.04;;
43787;Laerm;29409;49.306;8.500;2023-11-22T02:05:21;40.74;37.52;45.94;;
43787;Laerm;29409;49.306;8.500;2023-11-22T02:06:21;41.84;38.37;48.25;;
43787;Laerm;29409;49.306;8.500;2023-11-22T02:07:22;42.44;39.34;50.54;;
43787;Laerm;29409;49.306;8.500;2023-11-22T02:08:22;42.49;38.81;50.53;;
43787;Laerm;29409;49.306;8.500;2023-11-22T02:09:22;41.20;38.52;45.91;;
43787;Laerm;29409;49.306;8.500;2023-11-22T02:10:24;40.98;38.21;43.54;;
43787;Laerm;29409;49.306;8.500;2023-11-22T02:11:24;40.60;37.70;43.14;;
43787;Laerm;29409;49.306;8.500;2023-11-22T02:12:28;44.61;36.69;72.72;;
43787;Laerm;29409;49.306;8.500;2023-11-22T02:13:30;40.99;38.05;45.45;;
43787;Laerm;29409;49.306;8.500;2023-11-22T02:14:31;41.19;37.70;46.10;;
43787;Laerm;29409;49.306;8.500;2023-11-22T02:15:31;43.02;38.67;52.95;;
43787;Laerm;29409;49.306;8.500;2023-11-22T02:16:31;41.19;38.52;44.65;;
43787;Laerm;29409;49.306;8.500;2023-11-22T02:17:32;40.71;38.05;42.98;;
43787;Laerm;29409;49.306;8.500;2023-11-22T02:18:34;40.47;37.70;43.99;;
43787;Laerm;29409;49.306;8.500;2023-11-22T02:19:37;40.47;37.70;42.59;;
43787;Laerm;29409;49.306;8.500;2023-11-22T02:20:37;40.59;37.52;43.63;;
43787;Laerm;29409;49.306;8.500;2023-11-22T02:21:38;40.48;37.52;43.04;;
43787;Laerm;29409;49.306;8.500;2023-11-22T02:22:44;40.26;37.52;42.53;;
43787;Laerm;29409;49.306;8.500;2023-11-22T02:23:45;40.42;37.52;42.53;;
43787;Laerm;29409;49.306;8.500;2023-11-22T02:24:47;40.97;38.37;43.39;;
43787;Laerm;29409;49.306;8.500;2023-11-22T02:25:47;41.65;38.52;46.40;;
43787;Laerm;29409;49.306;8.500;2023-11-22T02:26:48;41.06;38.52;43.39;;
43787;Laerm;29409;49.306;8.500;2023-11-22T02:27:48;40.73;38.05;42.93;;
43787;Laerm;29409;49.306;8.500;2023-11-22T02:28:49;41.06;37.52;53.83;;
43787;Laerm;29409;49.306;8.500;2023-11-22T02:29:50;41.16;38.02;44.11;;
43787;Laerm;29409;49.306;8.500;2023-11-22T02:30:51;41.25;38.67;44.52;;
43787;Laerm;29409;49.306;8.500;2023-11-22T02:31:51;41.72;38.52;47.02;;
43787;Laerm;29409;49.306;8.500;2023-11-22T02:32:52;40.97;38.52;42.98;;
43787;Laerm;29409;49.306;8.500;2023-11-22T02:33:53;40.52;37.32;42.98;;
43787;Laerm;29409;49.306;8.500;2023-11-22T02:34:54;40.42;37.32;42.79;;
43787;Laerm;29409;49.306;8.500;2023-11-22T02:35:54;40.75;37.88;43.68;;
43787;Laerm;29409;49.306;8.500;2023-11-22T02:36:54;41.03;37.88;42.82;;
43787;Laerm;29409;49.306;8.500;2023-11-22T02:37:54;41.15;38.81;43.19;;
43787;Laerm;29409;49.306;8.500;2023-11-22T02:38:55;41.00;38.21;43.14;;
43787;Laerm;29409;49.306;8.500;2023-11-22T02:40:02;41.18;37.70;45.51;;
43787;Laerm;29409;49.306;8.500;2023-11-22T02:41:04;41.64;38.52;46.59;;
43787;Laerm;29409;49.306;8.500;2023-11-22T02:42:04;41.46;38.95;43.94;;
43787;Laerm;29409;49.306;8.500;2023-11-22T02:43:05;41.60;38.52;44.27;;
43787;Laerm;29409;49.306;8.500;2023-11-22T02:44:09;41.34;38.52;45.28;;
43787;Laerm;29409;49.306;8.500;2023-11-22T02:45:09;41.24;38.37;45.01;;
43787;Laerm;29409;49.306;8.500;2023-11-22T02:46:10;41.02;38.37;43.04;;
43787;Laerm;29409;49.306;8.500;2023-11-22T02:47:11;41.79;37.52;45.45;;
43787;Laerm;29409;49.306;8.500;2023-11-22T02:48:12;41.48;39.08;43.44;;
43787;Laerm;29409;49.306;8.500;2023-11-22T02:49:13;41.12;38.37;44.35;;
43787;Laerm;29409;49.306;8.500;2023-11-22T02:50:13;42.72;39.46;45.94;;
43787;Laerm;29409;49.306;8.500;2023-11-22T02:51:14;43.91;38.95;53.71;;
43787;Laerm;29409;49.306;8.500;2023-11-22T02:52:15;41.53;38.37;48.05;;
43787;Laerm;29409;49.306;8.500;2023-11-22T02:53:16;42.13;37.88;46.77;;
43787;Laerm;29409;49.306;8.500;2023-11-22T02:54:17;41.14;37.88;44.15;;
43787;Laerm;29409;49.306;8.500;2023-11-22T02:55:17;41.97;39.34;49.41;;
43787;Laerm;29409;49.306;8.500;2023-11-22T02:56:17;41.56;38.37;43.86;;
43787;Laerm;29409;49.306;8.500;2023-11-22T02:57:17;41.20;38.37;43.72;;
43787;Laerm;29409;49.306;8.500;2023-11-22T02:58:18;41.58;38.81;44.15;;
43787;Laerm;29409;49.306;8.500;2023-11-22T02:59:19;41.06;38.52;43.44;;
43787;Laerm;29409;49.306;8.500;2023-11-22T03:00:19;42.96;38.95;48.70;;
43787;Laerm;29409;49.306;8.500;2023-11-22T03:01:19;40.97;38.21;42.93;;
43787;Laerm;29409;49.306;8.500;2023-11-22T03:02:20;41.11;38.67;43.86;;
43787;Laerm;29409;49.306;8.500;2023-11-22T03:03:20;41.00;38.52;43.29;;
43787;Laerm;29409;49.306;8.500;2023-11-22T03:04:21;41.45;38.95;53.48;;
43787;Laerm;29409;49.306;8.500;2023-11-22T03:05:24;42.43;38.95;48.84;;
43787;Laerm;29409;49.306;8.500;2023-11-22T03:06:24;41.35;38.95;43.29;;
43787;Laerm;29409;49.306;8.500;2023-11-22T03:07:25;41.33;38.99;44.19;;
43787;Laerm;29409;49.306;8.500;2023-11-22T03:08:25;41.78;38.52;44.51;;
43787;Laerm;29409;49.306;8.500;2023-11-22T03:09:26;41.30;38.95;43.44;;
43787;Laerm;29409;49.306;8.500;2023-11-22T03:10:26;41.36;38.95;43.14;;
43787;Laerm;29409;49.306;8.500;2023-11-22T03:11:26;42.16;39.23;46.18;;
43787;Laerm;29409;49.306;8.500;2023-11-22T03:12:27;41.68;38.52;43.99;;
43787;Laerm;29409;49.306;8.500;2023-11-22T03:13:27;41.56;38.95;43.49;;
43787;Laerm;29409;49.306;8.500;2023-11-22T03:14:28;42.66;38.52;51.61;;
43787;Laerm;29409;49.306;8.500;2023-11-22T03:15:29;41.28;38.37;43.39;;
43787;Laerm;29409;49.306;8.500;2023-11-22T03:16:30;41.45;38.37;43.77;;
43787;Laerm;29409;49.306;8.500;2023-11-22T03:17:30;41.90;39.34;44.23;;
43787;Laerm;29409;49.306;8.500;2023-11-22T03:18:30;42.31;39.78;45.48;;
43787;Laerm;29409;49.306;8.500;2023-11-22T03:19:31;43.46;40.62;48.73;;
43787;Laerm;29409;49.306;8.500;2023-11-22T03:20:34;41.69;39.21;45.73;;
43787;Laerm;29409;49.306;8.500;2023-11-22T03:21:34;41.68;39.46;44.35;;
43787;Laerm;29409;49.306;8.500;2023-11-22T03:22:35;41.75;39.08;44.51;;
43787;Laerm;29409;49.306;8.500;2023-11-22T03:23:36;41.36;38.67;43.14;;
43787;Laerm;29409;49.306;8.500;2023-11-22T03:24:36;42.76;39.46;53.15;;
43787;Laerm;29409;49.306;8.500;2023-11-22T03:25:38;41.62;38.67;45.57;;
43787;Laerm;29409;49.306;8.500;2023-11-22T03:26:38;41.94;39.23;50.45;;
43787;Laerm;29409;49.306;8.500;2023-11-22T03:27:39;41.30;38.52;43.72;;
43787;Laerm;29409;49.306;8.500;2023-11-22T03:28:39;41.42;39.08;43.24;;
43787;Laerm;29409;49.306;8.500;2023-11-22T03:29:40;41.18;38.52;43.24;;
43787;Laerm;29409;49.306;8.500;2023-11-22T03:30:40;41.51;39.08;44.23;;
43787;Laerm;29409;49.306;8.500;2023-11-22T03:31:40;43.40;39.08;53.02;;
43787;Laerm;29409;49.306;8.500;2023-11-22T03:32:41;43.84;40.71;55.33;;
43787;Laerm;29409;49.306;8.500;2023-11-22T03:33:42;41.99;39.08;44.65;;
43787;Laerm;29409;49.306;8.500;2023-11-22T03:34:42;41.94;39.21;44.16;;
43787;Laerm;29409;49.306;8.500;2023-11-22T03:35:43;41.59;39.08;44.35;;
43787;Laerm;29409;49.306;8.500;2023-11-22T03:36:43;41.60;39.21;43.58;;
43787;Laerm;29409;49.306;8.500;2023-11-22T03:37:43;42.13;39.23;45.23;;
43787;Laerm;29409;49.306;8.500;2023-11-22T03:38:44;42.69;39.46;52.03;;
43787;Laerm;29409;49.306;8.500;2023-11-22T03:39:46;43.35;39.34;52.17;;
43787;Laerm;29409;49.306;8.500;2023-11-22T03:40:48;41.83;39.08;43.68;;
43787;Laerm;29409;49.306;8.500;2023-11-22T03:41:48;42.39;38.95;48.07;;
43787;Laerm;29409;49.306;8.500;2023-11-22T03:42:50;41.98;39.34;48.08;;
43787;Laerm;29409;49.306;8.500;2023-11-22T03:43:51;42.93;39.58;49.55;;
43787;Laerm;29409;49.306;8.500;2023-11-22T03:44:52;42.61;39.46;47.42;;
43787;Laerm;29409;49.306;8.500;2023-11-22T03:45:52;42.24;39.58;46.55;;
43787;Laerm;29409;49.306;8.500;2023-11-22T03:46:53;42.23;39.58;48.87;;
43787;Laerm;29409;49.306;8.500;2023-11-22T03:47:53;43.86;40.23;50.20;;
43787;Laerm;29409;49.306;8.500;2023-11-22T03:48:54;42.43;40.03;47.77;;
43787;Laerm;29409;49.306;8.500;2023-11-22T03:49:54;42.65;39.58;46.82;;
43787;Laerm;29409;49.306;8.500;2023-11-22T03:50:54;42.85;39.81;47.95;;
43787;Laerm;29409;49.306;8.500;2023-11-22T03:51:54;42.07;39.46;45.63;;
43787;Laerm;29409;49.306;8.500;2023-11-22T03:52:55;42.20;39.35;43.99;;
43787;Laerm;29409;49.306;8.500;2023-11-22T03:53:56;43.24;40.89;46.91;;
43787;Laerm;29409;49.306;8.500;2023-11-22T03:54:56;42.98;39.92;50.39;;
43787;Laerm;29409;49.306;8.500;2023-11-22T03:55:57;43.12;40.53;49.24;;
43787;Laerm;29409;49.306;8.500;2023-11-22T03:56:58;42.75;40.03;46.57;;
43787;Laerm;29409;49.306;8.500;2023-11-22T03:57:58;43.64;40.53;50.76;;
43787;Laerm;29409;49.306;8.500;2023-11-22T03:58:58;43.21;40.79;45.75;;
43787;Laerm;29409;49.306;8.500;2023-11-22T03:59:59;42.91;40.80;44.94;;
43787;Laerm;29409;49.306;8.500;2023-11-22T04:00:59;42.54;39.46;46.02;;
43787;Laerm;29409;49.306;8.500;2023-11-22T04:02:02;43.97;40.71;52.31;;
43787;Laerm;29409;49.306;8.500;2023-11-22T04:03:03;44.28;40.33;51.15;;
43787;Laerm;29409;49.306;8.500;2023-11-22T04:04:04;43.20;40.13;49.57;;
43787;Laerm;29409;49.306;8.500;2023-11-22T04:05:05;42.81;39.70;47.42;;
43787;Laerm;29409;49.306;8.500;2023-11-22T04:06:07;43.97;40.33;55.57;;
43787;Laerm;29409;49.306;8.500;2023-11-22T04:07:07;42.52;40.43;45.75;;
43787;Laerm;29409;49.306;8.500;2023-11-22T04:08:08;42.54;39.92;48.42;;
43787;Laerm;29409;49.306;8.500;2023-11-22T04:09:08;42.18;39.92;43.81;;
43787;Laerm;29409;49.306;8.500;2023-11-22T04:10:12;42.60;40.23;46.20;;
43787;Laerm;29409;49.306;8.500;2023-11-22T04:11:13;42.15;40.03;43.99;;
43787;Laerm;29409;49.306;8.500;2023-11-22T04:12:13;42.86;40.23;46.66;;
43787;Laerm;29409;49.306;8.500;2023-11-22T04:13:13;43.32;39.92;48.28;;
43787;Laerm;29409;49.306;8.500;2023-11-22T04:14:14;43.10;40.53;47.88;;
43787;Laerm;29409;49.306;8.500;2023-11-22T04:15:14;42.17;40.03;44.35;;
43787;Laerm;29409;49.306;8.500;2023-11-22T04:16:16;46.41;40.62;60.60;;
43787;Laerm;29409;49.306;8.500;2023-11-22T04:17:17;42.76;39.70;47.61;;
43787;Laerm;29409;49.306;8.500;2023-11-22T04:18:19;42.68;39.92;47.57;;
43787;Laerm;29409;49.306;8.500;2023-11-22T04:19:19;42.41;39.81;45.69;;
43787;Laerm;29409;49.306;8.500;2023-11-22T04:20:20;42.92;40.13;47.96;;
43787;Laerm;29409;49.306;8.500;2023-11-22T04:21:20;43.14;40.33;51.04;;
43787;Laerm;29409;49.306;8.500;2023-11-22T04:22:20;43.12;40.98;47.63;;
43787;Laerm;29409;49.306;8.500;2023-11-22T04:23:21;44.03;40.62;51.36;;
43787;Laerm;29409;49.306;8.500;2023-11-22T04:24:21;44.31;40.62;54.34;;
43787;Laerm;29409;49.306;8.500;2023-11-22T04:25:21;43.45;40.33;49.52;;
43787;Laerm;29409;49.306;8.500;2023-11-22T04:26:23;45.48;41.82;54.42;;
43787;Laerm;29409;49.306;8.500;2023-11-22T04:27:24;45.12;42.71;49.15;;
43787;Laerm;29409;49.306;8.500;2023-11-22T04:28:25;45.92;41.30;61.79;;
43787;Laerm;29409;49.306;8.500;2023-11-22T04:29:25;45.99;41.22;55.42;;
43787;Laerm;29409;49.306;8.500;2023-11-22T04:30:25;42.50;40.33;46.73;;
43787;Laerm;29409;49.306;8.500;2023-11-22T04:31:26;44.88;41.53;55.96;;
43787;Laerm;29409;49.306;8.500;2023-11-22T04:32:27;43.11;40.13;48.03;;
43787;Laerm;29409;49.306;8.500;2023-11-22T04:33:27;43.07;40.71;48.95;;
43787;Laerm;29409;49.306;8.500;2023-11-22T04:34:28;43.95;40.89;49.24;;
43787;Laerm;29409;49.306;8.500;2023-11-22T04:35:28;43.91;40.33;52.81;;
43787;Laerm;29409;49.306;8.500;2023-11-22T04:36:29;42.92;40.71;57.42;;
43787;Laerm;29409;49.306;8.500;2023-11-22T04:37:29;44.57;40.89;53.15;;
43787;Laerm;29409;49.306;8.500;2023-11-22T04:38:32;44.42;41.82;53.57;;
43787;Laerm;29409;49.306;8.500;2023-11-22T04:39:34;44.25;40.98;52.68;;
43787;Laerm;29409;49.306;8.500;2023-11-22T04:40:34;49.05;41.75;60.63;;
43787;Laerm;29409;49.306;8.500;2023-11-22T04:41:34;44.43;40.62;52.54;;
43787;Laerm;29409;49.306;8.500;2023-11-22T04:42:35;44.54;41.30;52.26;;
43787;Laerm;29409;49.306;8.500;2023-11-22T04:43:36;43.78;40.71;51.91;;
43787;Laerm;29409;49.306;8.500;2023-11-22T04:44:38;44.94;41.68;57.46;;
43787;Laerm;29409;49.306;8.500;2023-11-22T04:45:39;44.92;41.06;54.84;;
43787;Laerm;29409;49.306;8.500;2023-11-22T04:46:40;45.38;41.89;55.23;;
43787;Laerm;29409;49.306;8.500;2023-11-22T04:47:40;44.43;41.30;51.59;;
43787;Laerm;29409;49.306;8.500;2023-11-22T04:48:40;44.87;40.53;53.21;;
43787;Laerm;29409;49.306;8.500;2023-11-22T04:49:44;42.67;39.81;47.26;;
43787;Laerm;29409;49.306;8.500;2023-11-22T04:50:46;42.99;39.99;47.57;;
43787;Laerm;29409;49.306;8.500;2023-11-22T04:51:47;43.25;40.33;48.37;;
43787;Laerm;29409;49.306;8.500;2023-11-22T04:52:47;43.15;40.80;46.33;;
43787;Laerm;29409;49.306;8.500;2023-11-22T04:53:47;44.24;41.61;49.13;;
43787;Laerm;29409;49.306;8.500;2023-11-22T04:54:48;43.79;40.18;53.39;;
43787;Laerm;29409;49.306;8.500;2023-11-22T04:55:48;44.06;41.38;50.32;;
43787;Laerm;29409;49.306;8.500;2023-11-22T04:56:49;44.21;40.43;49.12;;
43787;Laerm;29409;49.306;8.500;2023-11-22T04:57:50;44.79;41.61;54.63;;
43787;Laerm;29409;49.306;8.500;2023-11-22T04:58:50;43.53;40.89;48.84;;
43787;Laerm;29409;49.306;8.500;2023-11-22T04:59:51;45.09;41.75;54.17;;
43787;Laerm;29409;49.306;8.500;2023-11-22T05:00:51;43.48;41.22;47.95;;
43787;Laerm;29409;49.306;8.500;2023-11-22T05:01:51;43.77;41.38;50.64;;
43787;Laerm;29409;49.306;8.500;2023-11-22T05:02:52;43.49;41.30;46.64;;
43787;Laerm;29409;49.306;8.500;2023-11-22T05:03:52;43.66;40.89;48.18;;
43787;Laerm;29409;49.306;8.500;2023-11-22T05:04:53;46.29;41.81;57.77;;
43787;Laerm;29409;49.306;8.500;2023-11-22T05:05:53;44.06;41.75;49.57;;
43787;Laerm;29409;49.306;8.500;2023-11-22T05:06:53;43.57;41.22;47.55;;
43787;Laerm;29409;49.306;8.500;2023-11-22T05:07:54;52.54;41.48;69.84;;
43787;Laerm;29409;49.306;8.500;2023-11-22T05:08:54;44.16;41.53;48.42;;
43787;Laerm;29409;49.306;8.500;2023-11-22T05:09:55;44.93;42.16;52.63;;
43787;Laerm;29409;49.306;8.500;2023-11-22T05:10:55;43.68;41.61;48.08;;
43787;Laerm;29409;49.306;8.500;2023-11-22T05:11:55;44.02;41.68;48.07;;
43787;Laerm;29409;49.306;8.500;2023-11-22T05:12:56;44.43;41.96;51.62;;
43787;Laerm;29409;49.306;8.500;2023-11-22T05:13:59;45.40;41.75;51.77;;
43787;Laerm;29409;49.306;8.500;2023-11-22T05:14:59;45.52;42.71;52.07;;
43787;Laerm;29409;49.306;8.500;2023-11-22T05:16:00;45.28;42.35;52.57;;
43787;Laerm;29409;49.306;8.500;2023-11-22T05:17:00;49.25;42.76;64.97;;
43787;Laerm;29409;49.306;8.500;2023-11-22T05:18:01;44.46;42.35;48.20;;
43787;Laerm;29409;49.306;8.500;2023-11-22T05:19:02;46.24;43.19;54.12;;
43787;Laerm;29409;49.306;8.500;2023-11-22T05:20:02;45.71;42.82;52.59;;
43787;Laerm;29409;49.306;8.500;2023-11-22T05:21:04;45.12;42.93;51.83;;
43787;Laerm;29409;49.306;8.500;2023-11-22T05:22:05;45.75;42.65;50.48;;
43787;Laerm;29409;49.306;8.500;2023-11-22T05:23:05;44.59;41.96;49.69;;
43787;Laerm;29409;49.306;8.500;2023-11-22T05:24:06;47.21;42.59;58.17;;
43787;Laerm;29409;49.306;8.500;2023-11-22T05:25:07;44.35;42.09;51.72;;
43787;Laerm;29409;49.306;8.500;2023-11-22T05:26:08;44.50;42.35;49.81;;
43787;Laerm;29409;49.306;8.500;2023-11-22T05:27:08;45.05;42.88;50.93;;
43787;Laerm;29409;49.306;8.500;2023-11-22T05:28:09;44.14;42.09;46.82;;
43787;Laerm;29409;49.306;8.500;2023-11-22T05:29:09;44.77;42.22;49.00;;
43787;Laerm;29409;49.306;8.500;2023-11-22T05:30:10;45.53;42.82;51.16;;
43787;Laerm;29409;49.306;8.500;2023-11-22T05:31:11;48.51;41.61;55.31;;
43787;Laerm;29409;49.306;8.500;2023-11-22T05:32:13;46.24;42.47;51.77;;
43787;Laerm;29409;49.306;8.500;2023-11-22T05:33:13;45.09;40.89;52.39;;
43787;Laerm;29409;49.306;8.500;2023-11-22T05:34:14;44.53;42.16;50.86;;
43787;Laerm;29409;49.306;8.500;2023-11-22T05:35:14;46.29;42.88;53.46;;
43787;Laerm;29409;49.306;8.500;2023-11-22T05:36:15;46.93;42.76;56.44;;
43787;Laerm;29409;49.306;8.500;2023-11-22T05:37:16;45.52;43.04;52.80;;
43787;Laerm;29409;49.306;8.500;2023-11-22T05:38:17;45.01;41.96;51.50;;
43787;Laerm;29409;49.306;8.500;2023-11-22T05:39:17;44.09;41.75;47.44;;
43787;Laerm;29409;49.306;8.500;2023-11-22T05:40:18;44.88;42.03;53.38;;